sensor_id;sensor_type;location;lat;lon;timestamp;temperature;humidity
25140;DHT22;39015;48.106;-1.682;2022-12-07T09:09:12;11.00;63.90
25140;DHT22;39015;48.106;-1.682;2022-12-07T09:11:40;11.00;63.90
25140;DHT22;39015;48.106;-1.682;2022-12-07T09:14:06;11.00;63.90
25140;DHT22;39015;48.106;-1.682;2022-12-07T09:16:33;11.00;64.00
25140;DHT22;39015;48.106;-1.682;2022-12-07T09:19:00;11.00;63.90
25140;DHT22;39015;48.106;-1.682;2022-12-07T09:21:27;11.00;63.90
25140;DHT22;39015;48.106;-1.682;2022-12-07T09:23:54;11.00;64.00
25140;DHT22;39015;48.106;-1.682;2022-12-07T09:26:22;11.00;64.00
25140;DHT22;39015;48.106;-1.682;2022-12-07T09:28:49;11.00;64.10
25140;DHT22;39015;48.106;-1.682;2022-12-07T09:31:16;11.00;64.10
25140;DHT22;39015;48.106;-1.682;2022-12-07T09:33:43;11.00;64.10
25140;DHT22;39015;48.106;-1.682;2022-12-07T09:36:10;10.90;64.10
25140;DHT22;39015;48.106;-1.682;2022-12-07T09:38:37;11.00;64.20
25140;DHT22;39015;48.106;-1.682;2022-12-07T09:41:04;11.00;64.20
25140;DHT22;39015;48.106;-1.682;2022-12-07T09:43:33;11.00;64.30
25140;DHT22;39015;48.106;-1.682;2022-12-07T09:46:01;10.90;64.30
25140;DHT22;39015;48.106;-1.682;2022-12-07T09:48:29;10.90;64.30
25140;DHT22;39015;48.106;-1.682;2022-12-07T09:50:57;10.90;64.30
25140;DHT22;39015;48.106;-1.682;2022-12-07T09:53:25;10.90;64.40
25140;DHT22;39015;48.106;-1.682;2022-12-07T09:55:53;10.90;64.40
25140;DHT22;39015;48.106;-1.682;2022-12-07T09:58:21;10.90;64.50
25140;DHT22;39015;48.106;-1.682;2022-12-07T10:00:50;10.90;64.50
25140;DHT22;39015;48.106;-1.682;2022-12-07T10:03:19;10.90;64.50
25140;DHT22;39015;48.106;-1.682;2022-12-07T10:05:47;10.90;64.50
25140;DHT22;39015;48.106;-1.682;2022-12-07T10:08:14;10.90;64.70
25140;DHT22;39015;48.106;-1.682;2022-12-07T10:10:42;10.90;64.70
25140;DHT22;39015;48.106;-1.682;2022-12-07T10:13:10;10.90;64.70
25140;DHT22;39015;48.106;-1.682;2022-12-07T10:15:40;10.90;64.80
25140;DHT22;39015;48.106;-1.682;2022-12-07T10:18:18;10.90;64.70
25140;DHT22;39015;48.106;-1.682;2022-12-07T10:20:45;10.90;64.80
25140;DHT22;39015;48.106;-1.682;2022-12-07T10:23:13;10.90;64.90
25140;DHT22;39015;48.106;-1.682;2022-12-07T10:25:41;10.90;64.90
25140;DHT22;39015;48.106;-1.682;2022-12-07T10:28:12;10.90;64.90
25140;DHT22;39015;48.106;-1.682;2022-12-07T10:30:46;10.90;65.00
25140;DHT22;39015;48.106;-1.682;2022-12-07T10:33:19;10.90;65.00
25140;DHT22;39015;48.106;-1.682;2022-12-07T10:35:53;10.90;65.10
25140;DHT22;39015;48.106;-1.682;2022-12-07T10:38:20;10.90;65.10
25140;DHT22;39015;48.106;-1.682;2022-12-07T10:40:47;10.90;65.10
25140;DHT22;39015;48.106;-1.682;2022-12-07T10:43:18;10.90;65.10
25140;DHT22;39015;48.106;-1.682;2022-12-07T10:45:57;10.90;65.20
25140;DHT22;39015;48.106;-1.682;2022-12-07T10:48:32;10.90;65.20
25140;DHT22;39015;48.106;-1.682;2022-12-07T10:51:02;10.90;65.30
25140;DHT22;39015;48.106;-1.682;2022-12-07T10:53:34;10.90;65.40
25140;DHT22;39015;48.106;-1.682;2022-12-07T10:56:10;11.00;66.30
25140;DHT22;39015;48.106;-1.682;2022-12-07T10:58:45;11.10;65.80
25140;DHT22;39015;48.106;-1.682;2022-12-07T11:01:17;11.10;65.80
25140;DHT22;39015;48.106;-1.682;2022-12-07T11:03:53;11.20;65.90
25140;DHT22;39015;48.106;-1.682;2022-12-07T11:06:25;11.10;65.70
25140;DHT22;39015;48.106;-1.682;2022-12-07T11:08:57;11.10;65.70
25140;DHT22;39015;48.106;-1.682;2022-12-07T11:11:29;11.10;65.70
25140;DHT22;39015;48.106;-1.682;2022-12-07T11:14:00;11.10;65.80
25140;DHT22;39015;48.106;-1.682;2022-12-07T11:16:31;11.10;65.80
25140;DHT22;39015;48.106;-1.682;2022-12-07T11:21:48;11.10;65.80
25140;DHT22;39015;48.106;-1.682;2022-12-07T11:24:19;11.10;65.80
25140;DHT22;39015;48.106;-1.682;2022-12-07T11:26:55;11.10;65.80
25140;DHT22;39015;48.106;-1.682;2022-12-07T11:29:28;11.20;65.90
25140;DHT22;39015;48.106;-1.682;2022-12-07T11:32:02;11.20;65.90
25140;DHT22;39015;48.106;-1.682;2022-12-07T11:34:35;11.20;65.70
25140;DHT22;39015;48.106;-1.682;2022-12-07T11:37:08;11.20;65.70
25140;DHT22;39015;48.106;-1.682;2022-12-07T11:39:39;11.30;65.80
25140;DHT22;39015;48.106;-1.682;2022-12-07T11:42:09;11.30;65.80
25140;DHT22;39015;48.106;-1.682;2022-12-07T11:44:39;11.30;65.80
25140;DHT22;39015;48.106;-1.682;2022-12-07T11:47:12;11.30;65.80
25140;DHT22;39015;48.106;-1.682;2022-12-07T11:49:42;11.30;65.80
25140;DHT22;39015;48.106;-1.682;2022-12-07T11:52:13;11.30;65.80
25140;DHT22;39015;48.106;-1.682;2022-12-07T11:54:42;11.30;65.80
25140;DHT22;39015;48.106;-1.682;2022-12-07T11:57:12;11.30;65.80
25140;DHT22;39015;48.106;-1.682;2022-12-07T11:59:43;11.30;65.90
25140;DHT22;39015;48.106;-1.682;2022-12-07T12:02:15;11.30;65.80
25140;DHT22;39015;48.106;-1.682;2022-12-07T12:04:47;11.40;65.80
25140;DHT22;39015;48.106;-1.682;2022-12-07T12:07:18;11.40;65.90
25140;DHT22;39015;48.106;-1.682;2022-12-07T12:09:48;11.40;65.90
25140;DHT22;39015;48.106;-1.682;2022-12-07T12:12:21;11.30;65.80
25140;DHT22;39015;48.106;-1.682;2022-12-07T12:14:55;11.40;65.90
25140;DHT22;39015;48.106;-1.682;2022-12-07T12:17:38;11.30;65.90
25140;DHT22;39015;48.106;-1.682;2022-12-07T12:20:16;11.30;66.00
25140;DHT22;39015;48.106;-1.682;2022-12-07T12:22:49;11.30;66.00
25140;DHT22;39015;48.106;-1.682;2022-12-07T12:25:19;11.30;66.10
25140;DHT22;39015;48.106;-1.682;2022-12-07T12:27:48;11.30;66.20
25140;DHT22;39015;48.106;-1.682;2022-12-07T12:33:01;11.30;66.30
25140;DHT22;39015;48.106;-1.682;2022-12-07T12:35:29;11.30;66.30
25140;DHT22;39015;48.106;-1.682;2022-12-07T12:40:44;11.30;66.40
25140;DHT22;39015;48.106;-1.682;2022-12-07T12:48:37;11.30;66.60
25140;DHT22;39015;48.106;-1.682;2022-12-07T12:53:50;11.30;66.60
25140;DHT22;39015;48.106;-1.682;2022-12-07T12:56:27;11.30;66.60
25140;DHT22;39015;48.106;-1.682;2022-12-07T13:01:39;11.40;67.00
25140;DHT22;39015;48.106;-1.682;2022-12-07T13:04:27;11.40;67.10
25140;DHT22;39015;48.106;-1.682;2022-12-07T13:06:54;11.50;67.10
25140;DHT22;39015;48.106;-1.682;2022-12-07T13:09:23;11.50;67.30
25140;DHT22;39015;48.106;-1.682;2022-12-07T13:11:57;11.50;67.40
25140;DHT22;39015;48.106;-1.682;2022-12-07T13:14:51;11.50;67.30
25140;DHT22;39015;48.106;-1.682;2022-12-07T13:20:00;11.50;67.30
25140;DHT22;39015;48.106;-1.682;2022-12-07T13:22:34;11.40;67.30
25140;DHT22;39015;48.106;-1.682;2022-12-07T13:25:05;11.40;67.30
25140;DHT22;39015;48.106;-1.682;2022-12-07T13:27:35;11.40;67.40
25140;DHT22;39015;48.106;-1.682;2022-12-07T13:30:06;11.40;67.40
25140;DHT22;39015;48.106;-1.682;2022-12-07T13:32:34;11.40;67.50
25140;DHT22;39015;48.106;-1.682;2022-12-07T13:35:01;11.40;67.60
25140;DHT22;39015;48.106;-1.682;2022-12-07T13:37:47;11.50;67.70
25140;DHT22;39015;48.106;-1.682;2022-12-07T13:40:16;11.50;67.70
25140;DHT22;39015;48.106;-1.682;2022-12-07T13:42:45;11.40;67.70
25140;DHT22;39015;48.106;-1.682;2022-12-07T13:45:20;11.50;67.70
25140;DHT22;39015;48.106;-1.682;2022-12-07T13:47:48;11.40;67.60
25140;DHT22;39015;48.106;-1.682;2022-12-07T13:50:22;11.50;67.70
25140;DHT22;39015;48.106;-1.682;2022-12-07T13:52:49;11.40;67.70
25140;DHT22;39015;48.106;-1.682;2022-12-07T13:55:16;11.40;67.70
25140;DHT22;39015;48.106;-1.682;2022-12-07T13:57:45;11.50;67.80
25140;DHT22;39015;48.106;-1.682;2022-12-07T14:00:14;11.50;67.90
25140;DHT22;39015;48.106;-1.682;2022-12-07T14:02:53;11.40;67.90
25140;DHT22;39015;48.106;-1.682;2022-12-07T14:05:23;11.40;67.90
25140;DHT22;39015;48.106;-1.682;2022-12-07T14:07:53;11.40;68.00
25140;DHT22;39015;48.106;-1.682;2022-12-07T14:10:24;11.40;68.00
25140;DHT22;39015;48.106;-1.682;2022-12-07T14:12:53;11.40;68.00
25140;DHT22;39015;48.106;-1.682;2022-12-07T14:15:21;11.40;68.10
25140;DHT22;39015;48.106;-1.682;2022-12-07T14:17:52;11.40;68.10
25140;DHT22;39015;48.106;-1.682;2022-12-07T14:20:29;11.40;68.20
25140;DHT22;39015;48.106;-1.682;2022-12-07T14:22:56;11.40;68.20
25140;DHT22;39015;48.106;-1.682;2022-12-07T14:25:23;11.40;68.20
25140;DHT22;39015;48.106;-1.682;2022-12-07T14:27:57;11.40;68.30
25140;DHT22;39015;48.106;-1.682;2022-12-07T14:30:25;11.40;68.30
25140;DHT22;39015;48.106;-1.682;2022-12-07T14:32:54;11.40;68.40
25140;DHT22;39015;48.106;-1.682;2022-12-07T14:35:21;11.40;68.40
25140;DHT22;39015;48.106;-1.682;2022-12-07T14:37:48;11.40;68.40
25140;DHT22;39015;48.106;-1.682;2022-12-07T14:40:16;11.50;68.50
25140;DHT22;39015;48.106;-1.682;2022-12-07T14:42:44;11.50;68.40
25140;DHT22;39015;48.106;-1.682;2022-12-07T14:45:16;11.50;68.40
25140;DHT22;39015;48.106;-1.682;2022-12-07T14:47:44;11.50;68.40
25140;DHT22;39015;48.106;-1.682;2022-12-07T14:50:12;11.60;68.50
25140;DHT22;39015;48.106;-1.682;2022-12-07T14:52:39;11.60;68.50
25140;DHT22;39015;48.106;-1.682;2022-12-07T14:55:11;11.60;68.50
25140;DHT22;39015;48.106;-1.682;2022-12-07T14:57:39;11.60;68.40
25140;DHT22;39015;48.106;-1.682;2022-12-07T15:00:06;11.70;68.50
25140;DHT22;39015;48.106;-1.682;2022-12-07T15:02:34;11.70;68.40
25140;DHT22;39015;48.106;-1.682;2022-12-07T15:05:01;11.70;68.30
25140;DHT22;39015;48.106;-1.682;2022-12-07T15:07:28;11.70;68.30
25140;DHT22;39015;48.106;-1.682;2022-12-07T15:09:55;11.70;68.40
25140;DHT22;39015;48.106;-1.682;2022-12-07T15:12:21;11.70;68.30
25140;DHT22;39015;48.106;-1.682;2022-12-07T15:14:50;11.70;68.30
25140;DHT22;39015;48.106;-1.682;2022-12-07T15:17:16;11.80;68.40
25140;DHT22;39015;48.106;-1.682;2022-12-07T15:19:45;11.80;68.50
25140;DHT22;39015;48.106;-1.682;2022-12-07T15:22:11;11.80;68.50
25140;DHT22;39015;48.106;-1.682;2022-12-07T15:24:38;11.80;68.50
25140;DHT22;39015;48.106;-1.682;2022-12-07T15:27:05;11.80;68.50
25140;DHT22;39015;48.106;-1.682;2022-12-07T15:29:32;11.80;68.50
25140;DHT22;39015;48.106;-1.682;2022-12-07T15:31:58;11.80;68.60
25140;DHT22;39015;48.106;-1.682;2022-12-07T15:34:26;11.80;68.50
25140;DHT22;39015;48.106;-1.682;2022-12-07T15:36:55;11.80;68.60
25140;DHT22;39015;48.106;-1.682;2022-12-07T15:39:22;11.80;68.50
25140;DHT22;39015;48.106;-1.682;2022-12-07T15:41:48;11.80;68.50
25140;DHT22;39015;48.106;-1.682;2022-12-07T15:44:15;11.80;68.50
25140;DHT22;39015;48.106;-1.682;2022-12-07T15:47:00;11.80;68.50
25140;DHT22;39015;48.106;-1.682;2022-12-07T15:49:26;11.80;68.50
25140;DHT22;39015;48.106;-1.682;2022-12-07T15:51:55;11.80;68.40
25140;DHT22;39015;48.106;-1.682;2022-12-07T15:54:22;11.80;68.40
25140;DHT22;39015;48.106;-1.682;2022-12-07T15:56:49;11.80;68.40
25140;DHT22;39015;48.106;-1.682;2022-12-07T15:59:16;11.80;68.50
25140;DHT22;39015;48.106;-1.682;2022-12-07T16:01:43;11.80;68.40
25140;DHT22;39015;48.106;-1.682;2022-12-07T16:04:09;11.80;68.40
25140;DHT22;39015;48.106;-1.682;2022-12-07T16:06:36;11.80;68.40
25140;DHT22;39015;48.106;-1.682;2022-12-07T16:09:05;11.80;68.40
25140;DHT22;39015;48.106;-1.682;2022-12-07T16:11:31;11.80;68.40
25140;DHT22;39015;48.106;-1.682;2022-12-07T16:13:58;11.80;68.40
25140;DHT22;39015;48.106;-1.682;2022-12-07T16:16:26;11.80;68.40
25140;DHT22;39015;48.106;-1.682;2022-12-07T16:18:54;11.80;68.40
25140;DHT22;39015;48.106;-1.682;2022-12-07T16:21:22;11.80;68.40
25140;DHT22;39015;48.106;-1.682;2022-12-07T16:23:49;11.80;68.40
25140;DHT22;39015;48.106;-1.682;2022-12-07T16:26:18;11.80;68.30
25140;DHT22;39015;48.106;-1.682;2022-12-07T16:28:48;11.80;68.30
25140;DHT22;39015;48.106;-1.682;2022-12-07T16:31:16;11.80;68.30
25140;DHT22;39015;48.106;-1.682;2022-12-07T16:33:43;11.80;68.20
25140;DHT22;39015;48.106;-1.682;2022-12-07T16:36:11;11.80;68.20
25140;DHT22;39015;48.106;-1.682;2022-12-07T16:38:38;11.80;68.20
25140;DHT22;39015;48.106;-1.682;2022-12-07T16:41:06;11.80;68.10
25140;DHT22;39015;48.106;-1.682;2022-12-07T16:43:34;11.80;68.00
25140;DHT22;39015;48.106;-1.682;2022-12-07T16:46:01;11.80;68.00
25140;DHT22;39015;48.106;-1.682;2022-12-07T16:48:28;11.80;68.00
25140;DHT22;39015;48.106;-1.682;2022-12-07T16:50:55;11.80;68.00
25140;DHT22;39015;48.106;-1.682;2022-12-07T16:53:23;11.80;68.00
25140;DHT22;39015;48.106;-1.682;2022-12-07T16:55:50;11.80;68.90
25140;DHT22;39015;48.106;-1.682;2022-12-07T16:58:17;11.80;67.90
25140;DHT22;39015;48.106;-1.682;2022-12-07T17:00:45;11.80;67.80
25140;DHT22;39015;48.106;-1.682;2022-12-07T17:03:12;11.80;67.80
25140;DHT22;39015;48.106;-1.682;2022-12-07T17:05:39;11.90;67.80
25140;DHT22;39015;48.106;-1.682;2022-12-07T17:08:06;11.80;67.70
25140;DHT22;39015;48.106;-1.682;2022-12-07T17:10:33;11.80;67.70
25140;DHT22;39015;48.106;-1.682;2022-12-07T17:13:00;11.80;67.70
25140;DHT22;39015;48.106;-1.682;2022-12-07T17:15:27;11.80;67.70
25140;DHT22;39015;48.106;-1.682;2022-12-07T17:17:56;11.80;67.60
25140;DHT22;39015;48.106;-1.682;2022-12-07T17:20:23;11.80;67.70
25140;DHT22;39015;48.106;-1.682;2022-12-07T17:22:50;11.80;67.50
25140;DHT22;39015;48.106;-1.682;2022-12-07T17:25:17;11.80;67.50
25140;DHT22;39015;48.106;-1.682;2022-12-07T17:27:44;11.80;67.50
25140;DHT22;39015;48.106;-1.682;2022-12-07T17:30:12;11.80;67.40
25140;DHT22;39015;48.106;-1.682;2022-12-07T17:32:39;11.80;67.30
25140;DHT22;39015;48.106;-1.682;2022-12-07T17:35:08;11.80;67.30
25140;DHT22;39015;48.106;-1.682;2022-12-07T17:37:35;11.80;67.30
25140;DHT22;39015;48.106;-1.682;2022-12-07T17:40:02;11.80;67.30
25140;DHT22;39015;48.106;-1.682;2022-12-07T17:42:29;11.80;67.30
25140;DHT22;39015;48.106;-1.682;2022-12-07T17:45:02;11.80;67.30
25140;DHT22;39015;48.106;-1.682;2022-12-07T17:47:28;11.80;67.20
25140;DHT22;39015;48.106;-1.682;2022-12-07T17:49:55;11.80;67.10
25140;DHT22;39015;48.106;-1.682;2022-12-07T17:52:23;11.80;67.10
25140;DHT22;39015;48.106;-1.682;2022-12-07T17:55:08;11.80;67.10
25140;DHT22;39015;48.106;-1.682;2022-12-07T17:57:34;11.80;66.90
25140;DHT22;39015;48.106;-1.682;2022-12-07T18:00:01;11.80;66.80
25140;DHT22;39015;48.106;-1.682;2022-12-07T18:02:28;11.80;66.80
25140;DHT22;39015;48.106;-1.682;2022-12-07T18:04:55;11.80;66.80
25140;DHT22;39015;48.106;-1.682;2022-12-07T18:07:23;11.70;66.70
25140;DHT22;39015;48.106;-1.682;2022-12-07T18:09:50;11.70;66.70
25140;DHT22;39015;48.106;-1.682;2022-12-07T18:12:18;11.70;66.60
25140;DHT22;39015;48.106;-1.682;2022-12-07T18:14:45;11.70;66.60
25140;DHT22;39015;48.106;-1.682;2022-12-07T18:17:13;11.70;66.60
25140;DHT22;39015;48.106;-1.682;2022-12-07T18:19:39;11.70;66.50
25140;DHT22;39015;48.106;-1.682;2022-12-07T18:22:06;11.70;66.50
25140;DHT22;39015;48.106;-1.682;2022-12-07T18:24:34;11.70;66.40
25140;DHT22;39015;48.106;-1.682;2022-12-07T18:27:02;11.70;66.40
25140;DHT22;39015;48.106;-1.682;2022-12-07T18:29:29;11.70;66.30
25140;DHT22;39015;48.106;-1.682;2022-12-07T18:31:56;11.70;66.30
25140;DHT22;39015;48.106;-1.682;2022-12-07T18:34:23;11.70;66.20
25140;DHT22;39015;48.106;-1.682;2022-12-07T18:36:53;11.70;66.20
25140;DHT22;39015;48.106;-1.682;2022-12-07T18:39:19;11.70;66.20
25140;DHT22;39015;48.106;-1.682;2022-12-07T18:41:48;11.70;66.10
25140;DHT22;39015;48.106;-1.682;2022-12-07T18:44:15;11.70;66.10
25140;DHT22;39015;48.106;-1.682;2022-12-07T18:46:42;11.70;66.00
25140;DHT22;39015;48.106;-1.682;2022-12-07T18:49:09;11.70;66.00
25140;DHT22;39015;48.106;-1.682;2022-12-07T18:51:37;11.70;66.00
25140;DHT22;39015;48.106;-1.682;2022-12-07T18:54:04;11.70;65.90
25140;DHT22;39015;48.106;-1.682;2022-12-07T18:56:32;11.70;65.80
25140;DHT22;39015;48.106;-1.682;2022-12-07T18:59:00;11.70;65.70
25140;DHT22;39015;48.106;-1.682;2022-12-07T19:01:46;11.70;65.70
25140;DHT22;39015;48.106;-1.682;2022-12-07T19:04:13;11.60;65.50
25140;DHT22;39015;48.106;-1.682;2022-12-07T19:06:40;11.60;65.50
25140;DHT22;39015;48.106;-1.682;2022-12-07T19:09:07;11.60;65.40
25140;DHT22;39015;48.106;-1.682;2022-12-07T19:11:34;11.60;65.40
25140;DHT22;39015;48.106;-1.682;2022-12-07T19:14:19;11.60;65.40
25140;DHT22;39015;48.106;-1.682;2022-12-07T19:16:46;11.60;65.30
25140;DHT22;39015;48.106;-1.682;2022-12-07T19:19:15;11.60;65.20
25140;DHT22;39015;48.106;-1.682;2022-12-07T19:21:42;11.60;65.20
25140;DHT22;39015;48.106;-1.682;2022-12-07T19:24:09;11.60;65.10
25140;DHT22;39015;48.106;-1.682;2022-12-07T19:26:36;11.60;65.20
25140;DHT22;39015;48.106;-1.682;2022-12-07T19:29:03;11.60;65.20
25140;DHT22;39015;48.106;-1.682;2022-12-07T19:31:31;11.60;65.10
25140;DHT22;39015;48.106;-1.682;2022-12-07T19:33:58;11.60;65.10
25140;DHT22;39015;48.106;-1.682;2022-12-07T19:36:25;11.50;65.00
25140;DHT22;39015;48.106;-1.682;2022-12-07T19:38:52;11.60;64.90
25140;DHT22;39015;48.106;-1.682;2022-12-07T19:41:19;11.50;64.90
25140;DHT22;39015;48.106;-1.682;2022-12-07T19:44:03;11.50;64.80
25140;DHT22;39015;48.106;-1.682;2022-12-07T19:46:31;11.50;64.90
25140;DHT22;39015;48.106;-1.682;2022-12-07T19:48:58;11.50;64.70
25140;DHT22;39015;48.106;-1.682;2022-12-07T19:51:27;11.50;64.70
25140;DHT22;39015;48.106;-1.682;2022-12-07T19:53:54;11.50;64.60
25140;DHT22;39015;48.106;-1.682;2022-12-07T19:56:21;11.50;64.60
25140;DHT22;39015;48.106;-1.682;2022-12-07T19:58:48;11.50;64.60
25140;DHT22;39015;48.106;-1.682;2022-12-07T20:01:15;11.50;64.50
25140;DHT22;39015;48.106;-1.682;2022-12-07T20:03:43;11.50;65.30
25140;DHT22;39015;48.106;-1.682;2022-12-07T20:06:11;11.40;64.40
25140;DHT22;39015;48.106;-1.682;2022-12-07T20:08:38;11.40;64.40
25140;DHT22;39015;48.106;-1.682;2022-12-07T20:11:05;11.40;64.40
25140;DHT22;39015;48.106;-1.682;2022-12-07T20:13:46;11.40;64.30
25140;DHT22;39015;48.106;-1.682;2022-12-07T20:16:13;11.40;64.30
25140;DHT22;39015;48.106;-1.682;2022-12-07T20:18:40;11.40;64.20
25140;DHT22;39015;48.106;-1.682;2022-12-07T20:21:08;11.40;64.10
25140;DHT22;39015;48.106;-1.682;2022-12-07T20:23:34;11.40;64.10
25140;DHT22;39015;48.106;-1.682;2022-12-07T20:26:02;11.40;64.10
25140;DHT22;39015;48.106;-1.682;2022-12-07T20:28:29;11.40;64.10
25140;DHT22;39015;48.106;-1.682;2022-12-07T20:30:56;11.40;64.00
25140;DHT22;39015;48.106;-1.682;2022-12-07T20:33:22;11.40;64.00
25140;DHT22;39015;48.106;-1.682;2022-12-07T20:35:49;11.40;64.00
25140;DHT22;39015;48.106;-1.682;2022-12-07T20:38:17;11.40;64.00
25140;DHT22;39015;48.106;-1.682;2022-12-07T20:40:45;11.30;63.90
25140;DHT22;39015;48.106;-1.682;2022-12-07T20:43:12;11.30;63.90
25140;DHT22;39015;48.106;-1.682;2022-12-07T20:45:42;11.30;63.90
25140;DHT22;39015;48.106;-1.682;2022-12-07T20:48:09;11.30;63.90
25140;DHT22;39015;48.106;-1.682;2022-12-07T20:50:36;11.30;63.80
25140;DHT22;39015;48.106;-1.682;2022-12-07T20:53:02;11.30;63.70
25140;DHT22;39015;48.106;-1.682;2022-12-07T20:55:30;11.30;63.60
25140;DHT22;39015;48.106;-1.682;2022-12-07T20:57:57;11.30;63.70
25140;DHT22;39015;48.106;-1.682;2022-12-07T21:00:24;11.30;63.60
25140;DHT22;39015;48.106;-1.682;2022-12-07T21:02:51;11.30;63.60
25140;DHT22;39015;48.106;-1.682;2022-12-07T21:05:18;11.30;63.60
25140;DHT22;39015;48.106;-1.682;2022-12-07T21:07:45;11.30;63.50
25140;DHT22;39015;48.106;-1.682;2022-12-07T21:10:11;11.30;63.40
25140;DHT22;39015;48.106;-1.682;2022-12-07T21:12:40;11.30;63.30
25140;DHT22;39015;48.106;-1.682;2022-12-07T21:15:07;11.30;63.30
25140;DHT22;39015;48.106;-1.682;2022-12-07T21:17:34;11.20;63.20
25140;DHT22;39015;48.106;-1.682;2022-12-07T21:20:01;11.20;63.20
25140;DHT22;39015;48.106;-1.682;2022-12-07T21:22:28;11.20;63.10
25140;DHT22;39015;48.106;-1.682;2022-12-07T21:24:54;11.20;63.10
25140;DHT22;39015;48.106;-1.682;2022-12-07T21:27:21;11.20;63.00
25140;DHT22;39015;48.106;-1.682;2022-12-07T21:29:49;11.20;63.00
25140;DHT22;39015;48.106;-1.682;2022-12-07T21:32:16;11.20;63.00
25140;DHT22;39015;48.106;-1.682;2022-12-07T21:34:43;11.20;62.90
25140;DHT22;39015;48.106;-1.682;2022-12-07T21:37:10;11.20;63.00
25140;DHT22;39015;48.106;-1.682;2022-12-07T21:39:36;11.20;62.90
25140;DHT22;39015;48.106;-1.682;2022-12-07T21:42:03;11.10;62.90
25140;DHT22;39015;48.106;-1.682;2022-12-07T21:44:30;11.20;62.90
25140;DHT22;39015;48.106;-1.682;2022-12-07T21:46:58;11.10;62.80
25140;DHT22;39015;48.106;-1.682;2022-12-07T21:49:25;11.10;62.80
25140;DHT22;39015;48.106;-1.682;2022-12-07T21:51:52;11.20;62.90
25140;DHT22;39015;48.106;-1.682;2022-12-07T21:54:19;11.10;62.90
25140;DHT22;39015;48.106;-1.682;2022-12-07T21:56:46;11.10;62.90
25140;DHT22;39015;48.106;-1.682;2022-12-07T21:59:13;11.20;63.00
25140;DHT22;39015;48.106;-1.682;2022-12-07T22:01:40;11.20;62.90
25140;DHT22;39015;48.106;-1.682;2022-12-07T22:04:13;11.20;62.80
25140;DHT22;39015;48.106;-1.682;2022-12-07T22:06:41;11.20;62.70
25140;DHT22;39015;48.106;-1.682;2022-12-07T22:09:08;11.20;62.70
25140;DHT22;39015;48.106;-1.682;2022-12-07T22:11:35;11.20;62.70
25140;DHT22;39015;48.106;-1.682;2022-12-07T22:14:02;11.20;62.60
25140;DHT22;39015;48.106;-1.682;2022-12-07T22:16:46;11.10;62.50
25140;DHT22;39015;48.106;-1.682;2022-12-07T22:19:14;11.20;62.60
25140;DHT22;39015;48.106;-1.682;2022-12-07T22:21:41;11.10;62.50
25140;DHT22;39015;48.106;-1.682;2022-12-07T22:24:08;11.10;62.50
25140;DHT22;39015;48.106;-1.682;2022-12-07T22:26:37;11.10;62.40
25140;DHT22;39015;48.106;-1.682;2022-12-07T22:29:04;11.10;62.30
25140;DHT22;39015;48.106;-1.682;2022-12-07T22:31:30;11.10;62.30
25140;DHT22;39015;48.106;-1.682;2022-12-07T22:33:57;11.10;62.30
25140;DHT22;39015;48.106;-1.682;2022-12-07T22:36:26;11.10;62.30
25140;DHT22;39015;48.106;-1.682;2022-12-07T22:38:53;11.10;62.20
25140;DHT22;39015;48.106;-1.682;2022-12-07T22:41:22;11.10;62.20
25140;DHT22;39015;48.106;-1.682;2022-12-07T22:43:49;11.10;62.20
25140;DHT22;39015;48.106;-1.682;2022-12-07T22:46:16;11.10;62.20
25140;DHT22;39015;48.106;-1.682;2022-12-07T22:48:43;11.10;62.20
25140;DHT22;39015;48.106;-1.682;2022-12-07T22:51:18;11.00;62.10
25140;DHT22;39015;48.106;-1.682;2022-12-07T22:53:46;11.00;62.00
25140;DHT22;39015;48.106;-1.682;2022-12-07T22:56:13;11.00;62.00
25140;DHT22;39015;48.106;-1.682;2022-12-07T22:58:41;11.00;62.00
25140;DHT22;39015;48.106;-1.682;2022-12-07T23:01:08;11.00;62.00
25140;DHT22;39015;48.106;-1.682;2022-12-07T23:03:35;11.00;61.90
25140;DHT22;39015;48.106;-1.682;2022-12-07T23:06:04;11.00;61.90
25140;DHT22;39015;48.106;-1.682;2022-12-07T23:08:31;11.00;62.00
25140;DHT22;39015;48.106;-1.682;2022-12-07T23:10:59;10.90;61.80
25140;DHT22;39015;48.106;-1.682;2022-12-07T23:13:26;11.00;61.80
25140;DHT22;39015;48.106;-1.682;2022-12-07T23:16:00;10.90;61.90
25140;DHT22;39015;48.106;-1.682;2022-12-07T23:18:27;10.90;61.80
25140;DHT22;39015;48.106;-1.682;2022-12-07T23:20:54;10.90;61.80
25140;DHT22;39015;48.106;-1.682;2022-12-07T23:23:21;10.90;61.70
25140;DHT22;39015;48.106;-1.682;2022-12-07T23:25:48;10.90;61.70
25140;DHT22;39015;48.106;-1.682;2022-12-07T23:28:16;10.90;61.80
25140;DHT22;39015;48.106;-1.682;2022-12-07T23:30:43;10.90;61.70
